Terminal Aerodrome Forecast
Issued by NWS Cleveland, OH

Home | Current Version | Previous Version | Text Only | Print | Product List | Glossary Off
Versions: 1 2 3 4 5 6 7 8 9 10 11 12 13 14 15 16 17 18 19 20 21 22

000
FTUS41 KCLE 130800 AAA
TAFTOL
TAF AMD
KTOL 130840Z 1309/1406 29006KT 6SM -RA BR OVC025
      TEMPO 1309/1312 4SM BR OVC015
     FM131200 28012G20KT P6SM OVC020
     FM131800 32008KT P6SM BKN035
     FM132100 VRB03KT P6SM SCT035=

USA.gov is the U.S. government's official web portal to all federal, state and local government web resources and services.